Esther, Alberta

Past 24 Hour Conditions

Date / Time
(MDT)
Conditions Temp
(°F)
Humidity
(%)
Dew Point
(°F)
Wind
(mph)
Pressure
(inches)
Visibility
(miles)
24 October 2014
20:00 N/A 36 68 26 SW 8 30.1 N/A
19:00 N/A 36 65 26 SW 9 30.0 N/A
18:00 N/A 44 49 26 WSW 9 30.0 N/A
17:00 N/A 51 37 26 W 10 30.0 N/A
16:00 N/A 53 34 25 WNW 14 30.0 N/A
15:00 N/A 54 31 24 W 16 29.9 N/A
14:00 N/A 53 33 25 W 17 gust 23 29.9 N/A
13:00 N/A 52 35 25 W 19 gust 25 29.9 N/A
12:00 N/A 50 46 30 W 18 29.9 N/A
11:00 N/A 47 53 31 WSW 18 29.9 N/A
10:00 N/A 42 65 31 WSW 17 29.9 N/A
9:00 N/A 36 74 29 SW 15 29.9 N/A
8:00 N/A 34   79 28 SW 13 29.9 N/A
7:00 N/A 38 68 28 WSW 15 29.8 N/A
6:00 N/A 37 70 28 SW 13 29.8 N/A
5:00 N/A 37 69 28 WSW 10 29.7 N/A
4:00 N/A 39 65 29 WNW 10 29.7 N/A
3:00 N/A 38 74 31 WSW 11 29.6 N/A
2:00 N/A 41 76 34 WSW 11 29.6 N/A
1:00 N/A 47 64 35 SW 12 29.6 N/A
00:00 N/A 49 60 36 SSW 15 29.6 N/A
23 October 2014
23:00 N/A 49 63 37 S 15 29.6 N/A
22:00 N/A 51 58 36 S 15 29.6 N/A
21:00 N/A 55 49 36 SSW 18 29.6 N/A
20:00 N/A 57   45 36 SSW 18 29.6 N/A
N/A Not available
↑ Highest temperature
↓ Lowest temperature

If you require additional historical weather information, please visit Climate Data Online.

Date modified: